sensor_id;sensor_type;location;lat;lon;timestamp;P1;durP1;ratioP1;P2;durP2;ratioP2
35120;SDS011;21297;52.008;4.576;2023-11-22T00:01:41;24.88;;;13.82;;
35120;SDS011;21297;52.008;4.576;2023-11-22T00:04:26;28.60;;;14.32;;
35120;SDS011;21297;52.008;4.576;2023-11-22T00:07:12;26.15;;;13.50;;
35120;SDS011;21297;52.008;4.576;2023-11-22T00:09:58;28.92;;;15.15;;
35120;SDS011;21297;52.008;4.576;2023-11-22T00:12:43;22.17;;;12.75;;
35120;SDS011;21297;52.008;4.576;2023-11-22T00:15:29;26.52;;;14.43;;
35120;SDS011;21297;52.008;4.576;2023-11-22T00:18:15;26.30;;;13.95;;
35120;SDS011;21297;52.008;4.576;2023-11-22T00:21:00;22.50;;;13.10;;
35120;SDS011;21297;52.008;4.576;2023-11-22T00:23:46;21.45;;;12.60;;
35120;SDS011;21297;52.008;4.576;2023-11-22T00:26:32;23.20;;;12.00;;
35120;SDS011;21297;52.008;4.576;2023-11-22T00:29:17;21.52;;;12.48;;
35120;SDS011;21297;52.008;4.576;2023-11-22T00:32:03;23.98;;;13.63;;
35120;SDS011;21297;52.008;4.576;2023-11-22T00:34:50;23.15;;;12.02;;
35120;SDS011;21297;52.008;4.576;2023-11-22T00:37:35;21.75;;;11.35;;
35120;SDS011;21297;52.008;4.576;2023-11-22T00:40:21;20.63;;;12.02;;
35120;SDS011;21297;52.008;4.576;2023-11-22T00:43:06;22.13;;;11.38;;
35120;SDS011;21297;52.008;4.576;2023-11-22T00:45:52;17.73;;;10.90;;
35120;SDS011;21297;52.008;4.576;2023-11-22T00:48:38;18.55;;;10.45;;
35120;SDS011;21297;52.008;4.576;2023-11-22T00:51:23;21.17;;;11.68;;
35120;SDS011;21297;52.008;4.576;2023-11-22T00:54:09;21.58;;;12.50;;
35120;SDS011;21297;52.008;4.576;2023-11-22T00:56:55;20.70;;;11.35;;
35120;SDS011;21297;52.008;4.576;2023-11-22T00:59:41;19.48;;;10.23;;
35120;SDS011;21297;52.008;4.576;2023-11-22T01:02:26;19.25;;;11.05;;
35120;SDS011;21297;52.008;4.576;2023-11-22T01:05:12;16.30;;;9.65;;
35120;SDS011;21297;52.008;4.576;2023-11-22T01:07:58;14.98;;;9.27;;
35120;SDS011;21297;52.008;4.576;2023-11-22T01:10:43;18.17;;;10.27;;
35120;SDS011;21297;52.008;4.576;2023-11-22T01:13:29;23.40;;;12.63;;
35120;SDS011;21297;52.008;4.576;2023-11-22T01:16:15;22.85;;;12.23;;
35120;SDS011;21297;52.008;4.576;2023-11-22T01:19:01;20.00;;;10.55;;
35120;SDS011;21297;52.008;4.576;2023-11-22T01:21:47;22.83;;;12.27;;
35120;SDS011;21297;52.008;4.576;2023-11-22T01:24:33;19.80;;;10.65;;
35120;SDS011;21297;52.008;4.576;2023-11-22T01:27:18;16.60;;;9.52;;
35120;SDS011;21297;52.008;4.576;2023-11-22T01:30:04;17.48;;;9.57;;
35120;SDS011;21297;52.008;4.576;2023-11-22T01:32:52;22.13;;;11.93;;
35120;SDS011;21297;52.008;4.576;2023-11-22T01:35:38;20.13;;;10.15;;
35120;SDS011;21297;52.008;4.576;2023-11-22T01:38:24;22.63;;;12.23;;
35120;SDS011;21297;52.008;4.576;2023-11-22T01:41:10;23.08;;;12.73;;
35120;SDS011;21297;52.008;4.576;2023-11-22T01:43:58;19.95;;;11.95;;
35120;SDS011;21297;52.008;4.576;2023-11-22T01:46:43;21.02;;;12.10;;
35120;SDS011;21297;52.008;4.576;2023-11-22T01:49:29;20.10;;;11.60;;
35120;SDS011;21297;52.008;4.576;2023-11-22T01:52:15;22.08;;;12.45;;
35120;SDS011;21297;52.008;4.576;2023-11-22T01:55:04;24.23;;;11.73;;
35120;SDS011;21297;52.008;4.576;2023-11-22T01:57:50;25.17;;;11.40;;
35120;SDS011;21297;52.008;4.576;2023-11-22T02:00:41;21.88;;;12.05;;
35120;SDS011;21297;52.008;4.576;2023-11-22T02:03:30;23.00;;;12.57;;
35120;SDS011;21297;52.008;4.576;2023-11-22T02:06:16;20.85;;;12.10;;
35120;SDS011;21297;52.008;4.576;2023-11-22T02:09:02;25.95;;;13.93;;
35120;SDS011;21297;52.008;4.576;2023-11-22T02:11:48;25.10;;;13.45;;
35120;SDS011;21297;52.008;4.576;2023-11-22T02:14:34;20.05;;;12.38;;
35120;SDS011;21297;52.008;4.576;2023-11-22T02:17:20;25.83;;;13.02;;
35120;SDS011;21297;52.008;4.576;2023-11-22T02:20:08;21.40;;;12.18;;
35120;SDS011;21297;52.008;4.576;2023-11-22T02:22:56;20.58;;;12.57;;
35120;SDS011;21297;52.008;4.576;2023-11-22T02:25:42;20.98;;;11.63;;
35120;SDS011;21297;52.008;4.576;2023-11-22T02:28:28;22.73;;;12.60;;
35120;SDS011;21297;52.008;4.576;2023-11-22T02:31:14;23.25;;;12.95;;
35120;SDS011;21297;52.008;4.576;2023-11-22T02:33:59;23.33;;;13.32;;
35120;SDS011;21297;52.008;4.576;2023-11-22T02:36:45;22.42;;;12.10;;
35120;SDS011;21297;52.008;4.576;2023-11-22T02:39:41;20.30;;;12.30;;
35120;SDS011;21297;52.008;4.576;2023-11-22T02:42:36;22.88;;;11.75;;
35120;SDS011;21297;52.008;4.576;2023-11-22T02:45:28;40.80;;;14.25;;
35120;SDS011;21297;52.008;4.576;2023-11-22T02:48:14;22.13;;;12.18;;
35120;SDS011;21297;52.008;4.576;2023-11-22T02:50:59;23.60;;;12.15;;
35120;SDS011;21297;52.008;4.576;2023-11-22T02:53:45;19.08;;;10.43;;
35120;SDS011;21297;52.008;4.576;2023-11-22T02:56:31;18.60;;;10.85;;
35120;SDS011;21297;52.008;4.576;2023-11-22T02:59:17;18.60;;;10.90;;
35120;SDS011;21297;52.008;4.576;2023-11-22T03:02:03;20.35;;;11.35;;
35120;SDS011;21297;52.008;4.576;2023-11-22T03:04:49;15.85;;;9.10;;
35120;SDS011;21297;52.008;4.576;2023-11-22T03:07:35;19.00;;;10.18;;
35120;SDS011;21297;52.008;4.576;2023-11-22T03:10:21;24.10;;;11.38;;
35120;SDS011;21297;52.008;4.576;2023-11-22T03:13:06;21.75;;;11.13;;
35120;SDS011;21297;52.008;4.576;2023-11-22T03:15:53;21.15;;;11.50;;
35120;SDS011;21297;52.008;4.576;2023-11-22T03:18:40;18.35;;;10.63;;
35120;SDS011;21297;52.008;4.576;2023-11-22T03:21:27;17.05;;;9.90;;
35120;SDS011;21297;52.008;4.576;2023-11-22T03:24:13;20.75;;;10.23;;
35120;SDS011;21297;52.008;4.576;2023-11-22T03:27:01;19.00;;;10.10;;
35120;SDS011;21297;52.008;4.576;2023-11-22T03:29:47;18.98;;;9.82;;
35120;SDS011;21297;52.008;4.576;2023-11-22T03:32:33;18.40;;;10.88;;
35120;SDS011;21297;52.008;4.576;2023-11-22T03:35:22;19.52;;;11.10;;
35120;SDS011;21297;52.008;4.576;2023-11-22T03:38:08;19.95;;;11.20;;
35120;SDS011;21297;52.008;4.576;2023-11-22T03:40:53;19.23;;;10.50;;
35120;SDS011;21297;52.008;4.576;2023-11-22T03:43:39;17.00;;;9.52;;
35120;SDS011;21297;52.008;4.576;2023-11-22T03:46:24;18.35;;;10.48;;
35120;SDS011;21297;52.008;4.576;2023-11-22T03:49:10;18.95;;;10.75;;
35120;SDS011;21297;52.008;4.576;2023-11-22T03:51:56;21.33;;;11.77;;
35120;SDS011;21297;52.008;4.576;2023-11-22T03:54:41;18.83;;;10.80;;
35120;SDS011;21297;52.008;4.576;2023-11-22T03:57:27;17.77;;;9.45;;
35120;SDS011;21297;52.008;4.576;2023-11-22T04:00:12;21.02;;;11.82;;
35120;SDS011;21297;52.008;4.576;2023-11-22T04:02:59;22.52;;;12.15;;
35120;SDS011;21297;52.008;4.576;2023-11-22T04:05:47;22.50;;;12.10;;
35120;SDS011;21297;52.008;4.576;2023-11-22T04:08:32;21.05;;;12.35;;
35120;SDS011;21297;52.008;4.576;2023-11-22T04:11:18;22.23;;;12.13;;
35120;SDS011;21297;52.008;4.576;2023-11-22T04:14:04;20.75;;;10.68;;
35120;SDS011;21297;52.008;4.576;2023-11-22T04:16:51;21.13;;;12.25;;
35120;SDS011;21297;52.008;4.576;2023-11-22T04:19:36;23.15;;;13.23;;
35120;SDS011;21297;52.008;4.576;2023-11-22T04:22:22;22.63;;;13.63;;
35120;SDS011;21297;52.008;4.576;2023-11-22T04:25:08;21.48;;;12.25;;
35120;SDS011;21297;52.008;4.576;2023-11-22T04:27:58;24.42;;;11.95;;
35120;SDS011;21297;52.008;4.576;2023-11-22T04:30:45;20.70;;;11.93;;
35120;SDS011;21297;52.008;4.576;2023-11-22T04:33:30;22.23;;;11.95;;
35120;SDS011;21297;52.008;4.576;2023-11-22T04:36:17;19.85;;;11.20;;
35120;SDS011;21297;52.008;4.576;2023-11-22T04:39:03;25.73;;;14.23;;
35120;SDS011;21297;52.008;4.576;2023-11-22T04:41:49;23.42;;;13.32;;
35120;SDS011;21297;52.008;4.576;2023-11-22T04:44:36;21.92;;;12.70;;
35120;SDS011;21297;52.008;4.576;2023-11-22T04:47:21;18.10;;;10.60;;
35120;SDS011;21297;52.008;4.576;2023-11-22T04:50:07;23.48;;;13.00;;
35120;SDS011;21297;52.008;4.576;2023-11-22T04:52:54;23.60;;;13.07;;
35120;SDS011;21297;52.008;4.576;2023-11-22T04:55:40;24.73;;;14.20;;
35120;SDS011;21297;52.008;4.576;2023-11-22T04:58:26;28.27;;;15.68;;
35120;SDS011;21297;52.008;4.576;2023-11-22T05:01:11;25.02;;;13.52;;
35120;SDS011;21297;52.008;4.576;2023-11-22T05:03:57;25.33;;;13.98;;
35120;SDS011;21297;52.008;4.576;2023-11-22T05:06:44;25.05;;;14.63;;
35120;SDS011;21297;52.008;4.576;2023-11-22T05:09:31;28.65;;;16.50;;
35120;SDS011;21297;52.008;4.576;2023-11-22T05:12:17;31.25;;;16.92;;
35120;SDS011;21297;52.008;4.576;2023-11-22T05:15:03;28.98;;;16.80;;
35120;SDS011;21297;52.008;4.576;2023-11-22T05:17:49;30.23;;;16.88;;
35120;SDS011;21297;52.008;4.576;2023-11-22T05:20:34;27.92;;;15.40;;
35120;SDS011;21297;52.008;4.576;2023-11-22T05:23:20;26.95;;;15.35;;
35120;SDS011;21297;52.008;4.576;2023-11-22T05:26:07;27.67;;;14.90;;
35120;SDS011;21297;52.008;4.576;2023-11-22T05:28:53;26.95;;;14.93;;
35120;SDS011;21297;52.008;4.576;2023-11-22T05:31:38;27.63;;;15.95;;
35120;SDS011;21297;52.008;4.576;2023-11-22T05:34:24;27.90;;;15.27;;
35120;SDS011;21297;52.008;4.576;2023-11-22T05:37:10;27.55;;;15.82;;
35120;SDS011;21297;52.008;4.576;2023-11-22T05:39:55;25.50;;;14.80;;
35120;SDS011;21297;52.008;4.576;2023-11-22T05:42:41;27.75;;;15.45;;
35120;SDS011;21297;52.008;4.576;2023-11-22T05:45:27;24.48;;;14.57;;
35120;SDS011;21297;52.008;4.576;2023-11-22T05:48:12;24.90;;;14.25;;
35120;SDS011;21297;52.008;4.576;2023-11-22T05:50:58;26.63;;;15.30;;
35120;SDS011;21297;52.008;4.576;2023-11-22T05:53:44;30.58;;;16.95;;
35120;SDS011;21297;52.008;4.576;2023-11-22T05:56:29;28.27;;;16.67;;
35120;SDS011;21297;52.008;4.576;2023-11-22T05:59:15;29.20;;;16.08;;
35120;SDS011;21297;52.008;4.576;2023-11-22T06:02:01;28.60;;;16.35;;
35120;SDS011;21297;52.008;4.576;2023-11-22T06:04:46;34.95;;;17.05;;
35120;SDS011;21297;52.008;4.576;2023-11-22T06:07:32;34.25;;;18.63;;
35120;SDS011;21297;52.008;4.576;2023-11-22T06:10:18;31.45;;;17.35;;
35120;SDS011;21297;52.008;4.576;2023-11-22T06:13:04;29.75;;;16.95;;
35120;SDS011;21297;52.008;4.576;2023-11-22T06:15:50;30.20;;;17.08;;
35120;SDS011;21297;52.008;4.576;2023-11-22T06:18:35;31.83;;;17.75;;
35120;SDS011;21297;52.008;4.576;2023-11-22T06:21:25;29.53;;;17.27;;
35120;SDS011;21297;52.008;4.576;2023-11-22T06:24:12;29.60;;;16.83;;
35120;SDS011;21297;52.008;4.576;2023-11-22T06:27:01;30.65;;;16.92;;
35120;SDS011;21297;52.008;4.576;2023-11-22T06:29:47;28.90;;;17.38;;
35120;SDS011;21297;52.008;4.576;2023-11-22T06:32:33;30.23;;;16.90;;
35120;SDS011;21297;52.008;4.576;2023-11-22T06:35:19;32.75;;;18.00;;
35120;SDS011;21297;52.008;4.576;2023-11-22T06:38:05;30.95;;;17.77;;
35120;SDS011;21297;52.008;4.576;2023-11-22T06:40:50;29.67;;;16.40;;
35120;SDS011;21297;52.008;4.576;2023-11-22T06:43:36;36.15;;;17.55;;
35120;SDS011;21297;52.008;4.576;2023-11-22T06:46:22;30.95;;;17.90;;
35120;SDS011;21297;52.008;4.576;2023-11-22T06:49:08;32.38;;;18.95;;
35120;SDS011;21297;52.008;4.576;2023-11-22T06:51:54;43.70;;;19.88;;
35120;SDS011;21297;52.008;4.576;2023-11-22T06:54:39;37.15;;;19.98;;
35120;SDS011;21297;52.008;4.576;2023-11-22T06:57:25;36.33;;;19.02;;
35120;SDS011;21297;52.008;4.576;2023-11-22T07:00:14;31.20;;;18.02;;
35120;SDS011;21297;52.008;4.576;2023-11-22T07:03:01;33.97;;;18.30;;
35120;SDS011;21297;52.008;4.576;2023-11-22T07:05:47;34.45;;;18.77;;
35120;SDS011;21297;52.008;4.576;2023-11-22T07:08:33;39.97;;;20.95;;
35120;SDS011;21297;52.008;4.576;2023-11-22T07:11:23;33.85;;;18.88;;
35120;SDS011;21297;52.008;4.576;2023-11-22T07:14:08;37.95;;;18.17;;
35120;SDS011;21297;52.008;4.576;2023-11-22T07:16:54;35.67;;;19.02;;
35120;SDS011;21297;52.008;4.576;2023-11-22T07:19:42;37.30;;;19.77;;
35120;SDS011;21297;52.008;4.576;2023-11-22T07:22:31;30.02;;;17.90;;
35120;SDS011;21297;52.008;4.576;2023-11-22T07:25:17;31.80;;;17.52;;
35120;SDS011;21297;52.008;4.576;2023-11-22T07:28:05;31.95;;;18.52;;
35120;SDS011;21297;52.008;4.576;2023-11-22T07:30:51;30.20;;;17.02;;
35120;SDS011;21297;52.008;4.576;2023-11-22T07:33:37;31.73;;;18.10;;
35120;SDS011;21297;52.008;4.576;2023-11-22T07:36:23;31.17;;;17.13;;
35120;SDS011;21297;52.008;4.576;2023-11-22T07:39:10;30.08;;;17.05;;
35120;SDS011;21297;52.008;4.576;2023-11-22T07:41:57;31.42;;;17.45;;
35120;SDS011;21297;52.008;4.576;2023-11-22T07:44:43;32.30;;;18.80;;
35120;SDS011;21297;52.008;4.576;2023-11-22T07:47:28;31.92;;;16.85;;
35120;SDS011;21297;52.008;4.576;2023-11-22T07:50:14;29.45;;;16.83;;
35120;SDS011;21297;52.008;4.576;2023-11-22T07:53:00;33.67;;;18.50;;
35120;SDS011;21297;52.008;4.576;2023-11-22T07:55:48;37.22;;;18.88;;
35120;SDS011;21297;52.008;4.576;2023-11-22T07:58:34;33.65;;;18.67;;
35120;SDS011;21297;52.008;4.576;2023-11-22T08:01:19;34.33;;;18.80;;
35120;SDS011;21297;52.008;4.576;2023-11-22T08:04:05;38.28;;;20.10;;
35120;SDS011;21297;52.008;4.576;2023-11-22T08:06:50;32.38;;;17.65;;
35120;SDS011;21297;52.008;4.576;2023-11-22T08:09:37;31.67;;;18.45;;
35120;SDS011;21297;52.008;4.576;2023-11-22T08:12:23;33.38;;;18.88;;
35120;SDS011;21297;52.008;4.576;2023-11-22T08:15:09;34.63;;;19.30;;
35120;SDS011;21297;52.008;4.576;2023-11-22T08:17:58;45.65;;;21.83;;
35120;SDS011;21297;52.008;4.576;2023-11-22T08:20:45;38.58;;;19.77;;
35120;SDS011;21297;52.008;4.576;2023-11-22T08:23:31;36.45;;;20.52;;
35120;SDS011;21297;52.008;4.576;2023-11-22T08:26:17;40.30;;;21.13;;
35120;SDS011;21297;52.008;4.576;2023-11-22T08:29:03;47.42;;;22.30;;
35120;SDS011;21297;52.008;4.576;2023-11-22T08:31:49;37.65;;;20.15;;
35120;SDS011;21297;52.008;4.576;2023-11-22T08:34:36;36.25;;;19.20;;
35120;SDS011;21297;52.008;4.576;2023-11-22T08:37:21;41.13;;;21.88;;
35120;SDS011;21297;52.008;4.576;2023-11-22T08:40:07;44.72;;;21.67;;
35120;SDS011;21297;52.008;4.576;2023-11-22T08:42:56;46.72;;;23.80;;
35120;SDS011;21297;52.008;4.576;2023-11-22T08:45:42;45.08;;;22.88;;
35120;SDS011;21297;52.008;4.576;2023-11-22T08:48:29;39.10;;;22.48;;
35120;SDS011;21297;52.008;4.576;2023-11-22T08:51:15;42.22;;;23.05;;
35120;SDS011;21297;52.008;4.576;2023-11-22T08:54:00;48.55;;;24.38;;
35120;SDS011;21297;52.008;4.576;2023-11-22T08:56:46;39.75;;;22.83;;
35120;SDS011;21297;52.008;4.576;2023-11-22T08:59:32;39.97;;;22.05;;
35120;SDS011;21297;52.008;4.576;2023-11-22T09:02:23;42.58;;;21.88;;
35120;SDS011;21297;52.008;4.576;2023-11-22T09:05:09;43.17;;;22.45;;
35120;SDS011;21297;52.008;4.576;2023-11-22T09:07:54;42.30;;;23.48;;
35120;SDS011;21297;52.008;4.576;2023-11-22T09:10:44;37.10;;;21.85;;
35120;SDS011;21297;52.008;4.576;2023-11-22T09:13:30;37.05;;;22.02;;
35120;SDS011;21297;52.008;4.576;2023-11-22T09:16:15;39.10;;;22.45;;
35120;SDS011;21297;52.008;4.576;2023-11-22T09:19:02;42.65;;;23.15;;
35120;SDS011;21297;52.008;4.576;2023-11-22T09:21:49;41.28;;;22.92;;
35120;SDS011;21297;52.008;4.576;2023-11-22T09:24:34;39.40;;;21.92;;
35120;SDS011;21297;52.008;4.576;2023-11-22T09:27:22;35.83;;;21.08;;
35120;SDS011;21297;52.008;4.576;2023-11-22T09:30:08;39.78;;;21.75;;
35120;SDS011;21297;52.008;4.576;2023-11-22T09:33:07;36.88;;;20.73;;
35120;SDS011;21297;52.008;4.576;2023-11-22T09:35:56;37.40;;;20.73;;
35120;SDS011;21297;52.008;4.576;2023-11-22T09:38:41;36.90;;;21.33;;
35120;SDS011;21297;52.008;4.576;2023-11-22T09:41:27;37.17;;;21.10;;
35120;SDS011;21297;52.008;4.576;2023-11-22T09:44:14;36.00;;;21.08;;
35120;SDS011;21297;52.008;4.576;2023-11-22T09:47:01;32.92;;;19.23;;
35120;SDS011;21297;52.008;4.576;2023-11-22T09:49:49;38.42;;;22.02;;
35120;SDS011;21297;52.008;4.576;2023-11-22T09:52:37;33.03;;;20.40;;
35120;SDS011;21297;52.008;4.576;2023-11-22T09:55:27;33.50;;;20.23;;
35120;SDS011;21297;52.008;4.576;2023-11-22T09:58:14;38.20;;;21.83;;
35120;SDS011;21297;52.008;4.576;2023-11-22T10:01:02;36.08;;;21.00;;
35120;SDS011;21297;52.008;4.576;2023-11-22T10:03:49;35.05;;;21.08;;
35120;SDS011;21297;52.008;4.576;2023-11-22T10:06:35;39.10;;;21.45;;
35120;SDS011;21297;52.008;4.576;2023-11-22T10:09:21;34.30;;;20.38;;
35120;SDS011;21297;52.008;4.576;2023-11-22T10:12:09;33.88;;;20.17;;
35120;SDS011;21297;52.008;4.576;2023-11-22T10:15:13;38.38;;;21.05;;
35120;SDS011;21297;52.008;4.576;2023-11-22T10:17:59;39.70;;;20.42;;
35120;SDS011;21297;52.008;4.576;2023-11-22T10:20:48;36.80;;;20.95;;
35120;SDS011;21297;52.008;4.576;2023-11-22T10:23:34;34.97;;;19.48;;
35120;SDS011;21297;52.008;4.576;2023-11-22T10:26:20;30.65;;;17.92;;
35120;SDS011;21297;52.008;4.576;2023-11-22T10:29:06;31.52;;;18.23;;
35120;SDS011;21297;52.008;4.576;2023-11-22T10:31:53;29.63;;;18.08;;
35120;SDS011;21297;52.008;4.576;2023-11-22T10:34:40;33.97;;;18.35;;
35120;SDS011;21297;52.008;4.576;2023-11-22T10:37:25;30.80;;;18.25;;
35120;SDS011;21297;52.008;4.576;2023-11-22T10:40:11;33.85;;;18.98;;
35120;SDS011;21297;52.008;4.576;2023-11-22T10:42:58;30.60;;;18.17;;
35120;SDS011;21297;52.008;4.576;2023-11-22T10:45:44;31.98;;;18.25;;
35120;SDS011;21297;52.008;4.576;2023-11-22T10:48:33;27.55;;;16.25;;
35120;SDS011;21297;52.008;4.576;2023-11-22T10:51:19;25.38;;;15.57;;
35120;SDS011;21297;52.008;4.576;2023-11-22T10:54:08;23.55;;;14.25;;
35120;SDS011;21297;52.008;4.576;2023-11-22T10:56:55;23.73;;;14.48;;
35120;SDS011;21297;52.008;4.576;2023-11-22T10:59:42;22.40;;;14.02;;
35120;SDS011;21297;52.008;4.576;2023-11-22T11:02:30;24.20;;;13.02;;
35120;SDS011;21297;52.008;4.576;2023-11-22T11:05:21;21.23;;;12.50;;
35120;SDS011;21297;52.008;4.576;2023-11-22T11:08:14;25.33;;;13.23;;
35120;SDS011;21297;52.008;4.576;2023-11-22T11:11:03;20.00;;;11.88;;
35120;SDS011;21297;52.008;4.576;2023-11-22T11:13:51;24.67;;;14.20;;
35120;SDS011;21297;52.008;4.576;2023-11-22T11:16:38;19.40;;;12.32;;
35120;SDS011;21297;52.008;4.576;2023-11-22T11:19:26;21.40;;;12.02;;
35120;SDS011;21297;52.008;4.576;2023-11-22T11:22:13;22.05;;;11.27;;
35120;SDS011;21297;52.008;4.576;2023-11-22T11:25:02;20.40;;;12.13;;
35120;SDS011;21297;52.008;4.576;2023-11-22T11:27:57;19.23;;;12.00;;
35120;SDS011;21297;52.008;4.576;2023-11-22T11:30:46;22.33;;;12.20;;
35120;SDS011;21297;52.008;4.576;2023-11-22T11:33:33;18.02;;;11.30;;
35120;SDS011;21297;52.008;4.576;2023-11-22T11:36:23;19.85;;;11.90;;
35120;SDS011;21297;52.008;4.576;2023-11-22T11:42:12;20.30;;;11.43;;
35120;SDS011;21297;52.008;4.576;2023-11-22T11:47:44;19.83;;;11.43;;
35120;SDS011;21297;52.008;4.576;2023-11-22T11:50:31;17.85;;;11.13;;
35120;SDS011;21297;52.008;4.576;2023-11-22T11:53:19;18.65;;;10.93;;
35120;SDS011;21297;52.008;4.576;2023-11-22T11:56:05;19.83;;;11.15;;
35120;SDS011;21297;52.008;4.576;2023-11-22T11:58:53;20.50;;;11.25;;
35120;SDS011;21297;52.008;4.576;2023-11-22T12:01:44;20.42;;;11.43;;
35120;SDS011;21297;52.008;4.576;2023-11-22T12:04:30;19.20;;;11.35;;
35120;SDS011;21297;52.008;4.576;2023-11-22T12:07:17;21.85;;;12.52;;
35120;SDS011;21297;52.008;4.576;2023-11-22T12:10:03;21.63;;;12.02;;
35120;SDS011;21297;52.008;4.576;2023-11-22T12:12:51;20.15;;;12.23;;
35120;SDS011;21297;52.008;4.576;2023-11-22T12:15:37;21.70;;;13.10;;
35120;SDS011;21297;52.008;4.576;2023-11-22T12:18:23;23.65;;;13.27;;
35120;SDS011;21297;52.008;4.576;2023-11-22T12:21:08;21.42;;;11.77;;
35120;SDS011;21297;52.008;4.576;2023-11-22T12:23:58;19.38;;;12.52;;
35120;SDS011;21297;52.008;4.576;2023-11-22T12:26:48;18.67;;;11.10;;
35120;SDS011;21297;52.008;4.576;2023-11-22T12:29:36;17.92;;;10.40;;
35120;SDS011;21297;52.008;4.576;2023-11-22T12:32:23;19.70;;;11.60;;
35120;SDS011;21297;52.008;4.576;2023-11-22T12:35:10;17.77;;;10.45;;
35120;SDS011;21297;52.008;4.576;2023-11-22T12:37:58;19.83;;;11.40;;
35120;SDS011;21297;52.008;4.576;2023-11-22T12:40:47;18.48;;;10.68;;
35120;SDS011;21297;52.008;4.576;2023-11-22T12:43:33;19.60;;;10.57;;
35120;SDS011;21297;52.008;4.576;2023-11-22T12:46:19;16.25;;;9.68;;
35120;SDS011;21297;52.008;4.576;2023-11-22T12:49:05;16.52;;;9.57;;
35120;SDS011;21297;52.008;4.576;2023-11-22T12:51:52;16.85;;;10.20;;
35120;SDS011;21297;52.008;4.576;2023-11-22T12:54:38;15.23;;;8.95;;
35120;SDS011;21297;52.008;4.576;2023-11-22T12:57:24;17.70;;;9.88;;
35120;SDS011;21297;52.008;4.576;2023-11-22T13:00:10;17.45;;;9.43;;
35120;SDS011;21297;52.008;4.576;2023-11-22T13:02:56;17.67;;;9.35;;
35120;SDS011;21297;52.008;4.576;2023-11-22T13:05:43;17.27;;;10.45;;
35120;SDS011;21297;52.008;4.576;2023-11-22T13:08:30;18.02;;;9.35;;
35120;SDS011;21297;52.008;4.576;2023-11-22T13:11:16;17.23;;;9.80;;
35120;SDS011;21297;52.008;4.576;2023-11-22T13:14:04;20.05;;;11.15;;
35120;SDS011;21297;52.008;4.576;2023-11-22T13:16:50;17.52;;;10.50;;
35120;SDS011;21297;52.008;4.576;2023-11-22T13:19:35;20.27;;;11.13;;
35120;SDS011;21297;52.008;4.576;2023-11-22T13:22:22;19.58;;;11.10;;
35120;SDS011;21297;52.008;4.576;2023-11-22T13:25:10;22.90;;;11.50;;
35120;SDS011;21297;52.008;4.576;2023-11-22T13:30:44;24.70;;;13.07;;
35120;SDS011;21297;52.008;4.576;2023-11-22T13:33:30;19.95;;;12.43;;
35120;SDS011;21297;52.008;4.576;2023-11-22T13:36:16;21.33;;;13.05;;
35120;SDS011;21297;52.008;4.576;2023-11-22T13:39:02;25.70;;;13.65;;
35120;SDS011;21297;52.008;4.576;2023-11-22T13:41:48;24.83;;;14.27;;
35120;SDS011;21297;52.008;4.576;2023-11-22T13:44:35;27.27;;;14.35;;
35120;SDS011;21297;52.008;4.576;2023-11-22T13:47:20;22.60;;;13.57;;
35120;SDS011;21297;52.008;4.576;2023-11-22T13:50:06;23.27;;;12.98;;
35120;SDS011;21297;52.008;4.576;2023-11-22T13:52:53;23.92;;;14.27;;
35120;SDS011;21297;52.008;4.576;2023-11-22T13:55:40;25.58;;;14.77;;
35120;SDS011;21297;52.008;4.576;2023-11-22T13:58:26;24.23;;;14.95;;
35120;SDS011;21297;52.008;4.576;2023-11-22T14:01:12;26.83;;;15.15;;
35120;SDS011;21297;52.008;4.576;2023-11-22T14:04:02;25.90;;;14.38;;
35120;SDS011;21297;52.008;4.576;2023-11-22T14:06:47;23.88;;;13.60;;
35120;SDS011;21297;52.008;4.576;2023-11-22T14:09:33;24.52;;;14.70;;
35120;SDS011;21297;52.008;4.576;2023-11-22T14:12:22;24.23;;;13.98;;
35120;SDS011;21297;52.008;4.576;2023-11-22T14:15:07;26.90;;;14.15;;
35120;SDS011;21297;52.008;4.576;2023-11-22T14:17:54;24.50;;;14.43;;
35120;SDS011;21297;52.008;4.576;2023-11-22T14:20:40;22.98;;;13.98;;
35120;SDS011;21297;52.008;4.576;2023-11-22T14:23:26;24.77;;;13.80;;
35120;SDS011;21297;52.008;4.576;2023-11-22T14:26:11;24.27;;;14.38;;
35120;SDS011;21297;52.008;4.576;2023-11-22T14:28:57;25.17;;;14.68;;
35120;SDS011;21297;52.008;4.576;2023-11-22T14:31:43;27.95;;;16.58;;
35120;SDS011;21297;52.008;4.576;2023-11-22T14:34:30;29.35;;;17.05;;
35120;SDS011;21297;52.008;4.576;2023-11-22T14:37:15;29.95;;;16.55;;
35120;SDS011;21297;52.008;4.576;2023-11-22T14:40:01;30.73;;;16.88;;
35120;SDS011;21297;52.008;4.576;2023-11-22T14:42:49;27.33;;;16.13;;
35120;SDS011;21297;52.008;4.576;2023-11-22T14:45:37;29.27;;;18.05;;
35120;SDS011;21297;52.008;4.576;2023-11-22T14:48:23;28.92;;;17.35;;
35120;SDS011;21297;52.008;4.576;2023-11-22T14:51:09;32.75;;;18.92;;
35120;SDS011;21297;52.008;4.576;2023-11-22T14:53:54;35.72;;;19.40;;
35120;SDS011;21297;52.008;4.576;2023-11-22T14:56:40;32.78;;;19.33;;
35120;SDS011;21297;52.008;4.576;2023-11-22T14:59:26;32.35;;;19.45;;
35120;SDS011;21297;52.008;4.576;2023-11-22T15:02:12;36.28;;;19.98;;
35120;SDS011;21297;52.008;4.576;2023-11-22T15:04:57;35.92;;;19.45;;
35120;SDS011;21297;52.008;4.576;2023-11-22T15:07:43;36.15;;;20.42;;
35120;SDS011;21297;52.008;4.576;2023-11-22T15:10:29;37.97;;;21.70;;
35120;SDS011;21297;52.008;4.576;2023-11-22T15:13:14;40.38;;;21.48;;
35120;SDS011;21297;52.008;4.576;2023-11-22T15:16:02;38.33;;;20.65;;
35120;SDS011;21297;52.008;4.576;2023-11-22T15:18:47;39.38;;;21.23;;
35120;SDS011;21297;52.008;4.576;2023-11-22T15:21:33;32.88;;;20.10;;
35120;SDS011;21297;52.008;4.576;2023-11-22T15:24:19;37.10;;;21.98;;
35120;SDS011;21297;52.008;4.576;2023-11-22T15:27:05;38.75;;;21.02;;
35120;SDS011;21297;52.008;4.576;2023-11-22T15:29:51;43.17;;;22.80;;
35120;SDS011;21297;52.008;4.576;2023-11-22T15:32:37;37.42;;;23.15;;
35120;SDS011;21297;52.008;4.576;2023-11-22T15:35:23;41.67;;;24.20;;
35120;SDS011;21297;52.008;4.576;2023-11-22T15:38:08;43.50;;;23.63;;
35120;SDS011;21297;52.008;4.576;2023-11-22T15:40:54;49.17;;;25.42;;
35120;SDS011;21297;52.008;4.576;2023-11-22T15:43:40;46.25;;;26.13;;
35120;SDS011;21297;52.008;4.576;2023-11-22T15:46:27;49.10;;;26.85;;
35120;SDS011;21297;52.008;4.576;2023-11-22T15:49:14;48.20;;;26.88;;
35120;SDS011;21297;52.008;4.576;2023-11-22T15:52:00;51.30;;;27.77;;
35120;SDS011;21297;52.008;4.576;2023-11-22T15:54:46;53.28;;;28.35;;
35120;SDS011;21297;52.008;4.576;2023-11-22T15:57:32;54.15;;;28.35;;
35120;SDS011;21297;52.008;4.576;2023-11-22T16:00:18;50.78;;;27.77;;
35120;SDS011;21297;52.008;4.576;2023-11-22T16:03:06;54.22;;;27.50;;
35120;SDS011;21297;52.008;4.576;2023-11-22T16:05:58;53.72;;;29.58;;
35120;SDS011;21297;52.008;4.576;2023-11-22T16:08:45;51.40;;;26.52;;
35120;SDS011;21297;52.008;4.576;2023-11-22T16:11:32;51.03;;;28.67;;
35120;SDS011;21297;52.008;4.576;2023-11-22T16:14:18;49.67;;;27.58;;
35120;SDS011;21297;52.008;4.576;2023-11-22T16:17:03;52.50;;;29.25;;
35120;SDS011;21297;52.008;4.576;2023-11-22T16:19:50;58.22;;;29.45;;
35120;SDS011;21297;52.008;4.576;2023-11-22T16:22:35;53.08;;;28.95;;